Weather at Treasure Island Helipad

Public forecast

Using degrees Fahrenheit for public forecast. Weather courtesy of forecast.io.

Closest aviation weather report (METAR) to Treasure Island Helipad

Closest report is Metropolitan Oakland International Airport, 9.1 nm (16.8 km) SE.

2024/05/30 20:53 (retrieved 47 minutes ago)

KOAK 302053Z 29011KT 10SM FEW250 23/11 A2995 RMK AO2 SLP141 T02280111 58014

Closest aviation forecast (TAF) to Treasure Island Helipad

Closest forecast is Metropolitan Oakland International Airport, 9.1 nm (16.8 km) SE.

2024/05/30 18:22 (retrieved 3 hours ago)

TAF KOAK 301720Z 3018/3124 30004KT P6SM SKC FM302000 28013KT P6SM SKC FM310400 VRB04KT P6SM SKC FM312000 27011KT P6SM SKC